Map

Track Data

SID SEASON NUMBER BASIN SUBBASIN NAME ISO_TIME NATURE LAT LON WMO_WIND WMO_PRES WMO_AGENCY TRACK_TYPE DIST2LAND LANDFALL IFLAG USA_AGENCY USA_ATCF_ID USA_LAT USA_LON USA_RECORD USA_STATUS USA_WIND USA_PRES USA_SSHS USA_R34_NE USA_R34_SE USA_R34_SW USA_R34_NW USA_R50_NE USA_R50_SE USA_R50_SW USA_R50_NW USA_R64_NE USA_R64_SE USA_R64_SW USA_R64_NW USA_POCI USA_ROCI USA_RMW USA_EYE TOKYO_LAT TOKYO_LON TOKYO_GRADE TOKYO_WIND TOKYO_PRES TOKYO_R50_DIR TOKYO_R50_LONG TOKYO_R50_SHORT TOKYO_R30_DIR TOKYO_R30_LONG TOKYO_R30_SHORT TOKYO_LAND CMA_LAT CMA_LON CMA_CAT CMA_WIND CMA_PRES HKO_LAT HKO_LON HKO_CAT HKO_WIND HKO_PRES NEWDELHI_LAT NEWDELHI_LON NEWDELHI_GRADE NEWDELHI_WIND NEWDELHI_PRES NEWDELHI_CI NEWDELHI_DP NEWDELHI_POCI REUNION_LAT REUNION_LON REUNION_TYPE REUNION_WIND REUNION_PRES REUNION_TNUM REUNION_CI REUNION_RMW REUNION_R34_NE REUNION_R34_SE REUNION_R34_SW REUNION_R34_NW REUNION_R50_NE REUNION_R50_SE REUNION_R50_SW REUNION_R50_NW REUNION_R64_NE REUNION_R64_SE REUNION_R64_SW REUNION_R64_NW BOM_LAT BOM_LON BOM_TYPE BOM_WIND BOM_PRES BOM_TNUM BOM_CI BOM_RMW BOM_R34_NE BOM_R34_SE BOM_R34_SW BOM_R34_NW BOM_R50_NE BOM_R50_SE BOM_R50_SW BOM_R50_NW BOM_R64_NE BOM_R64_SE BOM_R64_SW BOM_R64_NW BOM_ROCI BOM_POCI BOM_EYE BOM_POS_METHOD BOM_PRES_METHOD NADI_LAT NADI_LON NADI_CAT NADI_WIND NADI_PRES WELLINGTON_LAT WELLINGTON_LON WELLINGTON_WIND WELLINGTON_PRES DS824_LAT DS824_LON DS824_STAGE DS824_WIND DS824_PRES TD9636_LAT TD9636_LON TD9636_STAGE TD9636_WIND TD9636_PRES TD9635_LAT TD9635_LON TD9635_WIND TD9635_PRES TD9635_ROCI NEUMANN_LAT NEUMANN_LON NEUMANN_CLASS NEUMANN_WIND NEUMANN_PRES MLC_LAT MLC_LON MLC_CLASS MLC_WIND MLC_PRES USA_GUST BOM_GUST BOM_GUST_PER REUNION_GUST REUNION_GUST_PER USA_SEAHGT USA_SEARAD_NE USA_SEARAD_SE USA_SEARAD_SW USA_SEARAD_NW STORM_SPEED STORM_DIR
1911082S14149 1911 31 SP EA NOT_NAMED 1911-03-22 23:00:00 NR -13.8000 149.300 main 360 360 __________O___ -1 -13.8000 149.300 7 8 162
1911082S14149 1911 31 SP EA NOT_NAMED 1911-03-23 00:00:00 NR -13.9300 149.330 main 371 371 __________P___ -1 -13.9300 149.330 7 8 168
1911082S14149 1911 31 SP EA NOT_NAMED 1911-03-23 03:00:00 NR -14.3214 149.411 main 412 412 __________P___ -1 -14.3214 149.411 7 8 171
1911082S14149 1911 31 SP EA NOT_NAMED 1911-03-23 06:00:00 NR -14.7179 149.460 main 445 439 __________P___ -1 -14.7179 149.460 7 8 177
1911082S14149 1911 31 SP EA NOT_NAMED 1911-03-23 09:00:00 NR -15.1231 149.451 main 439 414 __________P___ -1 -15.1231 149.451 7 8 184
1911082S14149 1911 31 SP EA NOT_NAMED 1911-03-23 11:00:00 NR -15.4000 149.400 main 414 409 __________O___ -1 -15.4000 149.400 7 9 191
1911082S14149 1911 31 SP EA NOT_NAMED 1911-03-23 12:00:00 NR -15.5407 149.359 main 409 370 __________P___ -1 -15.5407 149.359 7 9 200
1911082S14149 1911 31 SP EA NOT_NAMED 1911-03-23 15:00:00 NR -15.9624 149.184 main 365 332 __________P___ -1 -15.9624 149.184 7 9 205
1911082S14149 1911 31 SP EA NOT_NAMED 1911-03-23 18:00:00 NR -16.3615 148.962 main 328 287 __________P___ -1 -16.3615 148.962 7 9 210
1911082S14149 1911 31 SP EA NOT_NAMED 1911-03-23 21:00:00 NR -16.7099 148.735 main 287 271 __________P___ -1 -16.7099 148.735 7 8 213
1911082S14149 1911 31 SP EA NOT_NAMED 1911-03-23 23:00:00 NR -16.9000 148.600 main 271 269 __________O___ -1 -16.9000 148.600 7 6 214
1911082S14149 1911 31 SP EA NOT_NAMED 1911-03-24 00:00:00 NR -16.9739 148.551 main 269 246 __________P___ -1 -16.9739 148.551 7 4 215
1911082S14149 1911 31 SP EA NOT_NAMED 1911-03-24 03:00:00 NR -17.1401 148.424 main 246 234 __________P___ -1 -17.1401 148.424 7 4 218
1911082S14149 1911 31 SP EA NOT_NAMED 1911-03-24 06:00:00 NR -17.2497 148.324 main 234 223 __________P___ -1 -17.2497 148.324 7 3 221
1911082S14149 1911 31 SP EA NOT_NAMED 1911-03-24 09:00:00 NR -17.3371 148.245 main 223 222 __________P___ -1 -17.3371 148.245 7 2 218
1911082S14149 1911 31 SP EA NOT_NAMED 1911-03-24 11:00:00 NR -17.4000 148.200 main 222 222 __________O___ -1 -17.4000 148.200 7 3 210
1911082S14149 1911 31 SP EA NOT_NAMED 1911-03-24 12:00:00 NR -17.4454 148.174 main 222 212 __________P___ -1 -17.4454 148.174 7 3 205
1911082S14149 1911 31 SP EA NOT_NAMED 1911-03-24 15:00:00 NR -17.5866 148.107 main 212 204 __________P___ -1 -17.5866 148.107 7 3 201
1911082S14149 1911 31 SP EA NOT_NAMED 1911-03-24 18:00:00 NR -17.7354 148.054 main 204 179 __________P___ -1 -17.7354 148.054 7 3 195
1911082S14149 1911 31 SP EA NOT_NAMED 1911-03-24 21:00:00 NR -17.8917 148.017 main 179 168 __________P___ -1 -17.8917 148.017 7 3 193
1911082S14149 1911 31 SP EA NOT_NAMED 1911-03-24 23:00:00 NR -18.0000 148.000 main 168 168 __________O___ -1 -18.0000 148.000 7 3 0
1911082S14149 1911 31 SP EA NOT_NAMED 1911-03-25 00:00:00 NR -18.0550 147.990 main 158 148 __________P___ -1 -18.0550 147.990 7 3 187
1911082S14149 1911 31 SP EA NOT_NAMED 1911-03-25 03:00:00 NR -18.2254 147.968 main 148 128 __________P___ -1 -18.2254 147.968 7 4 183
1911082S14149 1911 31 SP EA NOT_NAMED 1911-03-25 06:00:00 NR -18.4017 147.963 main 128 109 __________P___ -1 -18.4017 147.963 7 4 176
1911082S14149 1911 31 SP EA NOT_NAMED 1911-03-25 09:00:00 NR -18.5807 147.978 main 109 100 __________P___ -1 -18.5807 147.978 7 4 172
1911082S14149 1911 31 SP EA NOT_NAMED 1911-03-25 11:00:00 NR -18.7000 148.000 main 100 100 __________O___ -1 -18.7000 148.000 7 4 175
1911082S14149 1911 31 SP EA NOT_NAMED 1911-03-25 12:00:00 NR -18.7570 148.004 main 92 84 __________P___ -1 -18.7570 148.004 7 3 0
1911082S14149 1911 31 SP EA NOT_NAMED 1911-03-25 15:00:00 NR -18.9277 148.028 main 84 76 __________P___ -1 -18.9277 148.028 7 4 167
1911082S14149 1911 31 SP EA NOT_NAMED 1911-03-25 18:00:00 NR -19.1000 148.084 main 77 69 __________P___ -1 -19.1000 148.084 7 4 156
1911082S14149 1911 31 SP EA NOT_NAMED 1911-03-25 21:00:00 NR -19.2774 148.191 main 69 67 __________P___ -1 -19.2774 148.191 7 4 146
1911082S14149 1911 31 SP EA NOT_NAMED 1911-03-25 23:00:00 NR -19.4000 148.300 main 67 56 __________O___ -1 -19.4000 148.300 7 5 139
1911082S14149 1911 31 SP EA NOT_NAMED 1911-03-26 00:00:00 NR -19.4670 148.366 main 56 45 __________P___ -1 -19.4670 148.366 7 6 133
1911082S14149 1911 31 SP EA NOT_NAMED 1911-03-26 03:00:00 NR -19.6751 148.612 main 45 45 __________P___ -1 -19.6751 148.612 7 7 129
1911082S14149 1911 31 SP EA NOT_NAMED 1911-03-26 06:00:00 NR -19.8840 148.916 main 45 39 __________P___ -1 -19.8840 148.916 7 7 124
1911082S14149 1911 31 SP EA NOT_NAMED 1911-03-26 09:00:00 NR -20.0811 149.259 main 56 56 __________P___ -1 -20.0811 149.259 7 8 120
1911082S14149 1911 31 SP EA NOT_NAMED 1911-03-26 11:00:00 NR -20.2000 149.500 main 70 70 __________O___ -1 -20.2000 149.500 7 7 118
1911082S14149 1911 31 SP EA NOT_NAMED 1911-03-26 12:00:00 NR -20.2528 149.609 main 76 76 __________P___ -1 -20.2528 149.609 7 7 115
1911082S14149 1911 31 SP EA NOT_NAMED 1911-03-26 15:00:00 NR -20.3953 149.950 main 104 104 __________P___ -1 -20.3953 149.950 7 7 112
1911082S14149 1911 31 SP EA NOT_NAMED 1911-03-26 18:00:00 NR -20.5189 150.316 main 132 132 __________P___ -1 -20.5189 150.316 7 8 108
1911082S14149 1911 31 SP EA NOT_NAMED 1911-03-26 21:00:00 NR -20.6299 150.714 main 165 165 __________P___ -1 -20.6299 150.714 7 8 106
1911082S14149 1911 31 SP EA NOT_NAMED 1911-03-26 23:00:00 NR -20.7000 151.000 main 192 192 __________O___ -1 -20.7000 151.000 7 8 105
1911082S14149 1911 31 SP EA NOT_NAMED 1911-03-27 00:00:00 NR -20.7392 151.151 main 196 186 __________P___ -1 -20.7392 151.151 7 9 104
1911082S14149 1911 31 SP EA NOT_NAMED 1911-03-27 03:00:00 NR -20.8522 151.633 main 191 191 __________P___ -1 -20.8522 151.633 7 10 103
1911082S14149 1911 31 SP EA NOT_NAMED 1911-03-27 06:00:00 NR -20.9560 152.141 main 213 213 __________P___ -1 -20.9560 152.141 7 10 102
1911082S14149 1911 31 SP EA NOT_NAMED 1911-03-27 09:00:00 NR -21.0474 152.659 main 258 250 __________P___ -1 -21.0474 152.659 7 10 100
1911082S14149 1911 31 SP EA NOT_NAMED 1911-03-27 11:00:00 NR -21.1000 153.000 main 275 275 __________O___ -1 -21.1000 153.000 7 10 99
1911082S14149 1911 31 SP EA NOT_NAMED 1911-03-27 12:00:00 NR -21.1221 153.172 main 293 293 __________P___ -1 -21.1221 153.172 7 10 97
1911082S14149 1911 31 SP EA NOT_NAMED 1911-03-27 15:00:00 NR -21.1771 153.685 main 332 332 __________P___ -1 -21.1771 153.685 7 9 96
1911082S14149 1911 31 SP EA NOT_NAMED 1911-03-27 18:00:00 NR -21.2221 154.179 main 379 379 __________P___ -1 -21.2221 154.179 7 9 96
1911082S14149 1911 31 SP EA NOT_NAMED 1911-03-27 21:00:00 NR -21.2663 154.632 main 413 413 __________P___ -1 -21.2663 154.632 7 8 97
1911082S14149 1911 31 SP EA NOT_NAMED 1911-03-27 23:00:00 NR -21.3000 154.900 main 424 424 __________O___ -1 -21.3000 154.900 7 7 99
1911082S14149 1911 31 SP EA NOT_NAMED 1911-03-28 00:00:00 NR -21.3214 155.020 main 428 426 __________P___ -1 -21.3214 155.020 7 6 103
1911082S14149 1911 31 SP EA NOT_NAMED 1911-03-28 03:00:00 NR -21.3913 155.335 main 431 431 __________P___ -1 -21.3913 155.335 7 6 105
1911082S14149 1911 31 SP EA NOT_NAMED 1911-03-28 06:00:00 NR -21.4676 155.603 main 437 437 __________P___ -1 -21.4676 155.603 7 5 108
1911082S14149 1911 31 SP EA NOT_NAMED 1911-03-28 09:00:00 NR -21.5470 155.843 main 448 445 __________P___ -1 -21.5470 155.843 7 5 110
1911082S14149 1911 31 SP EA NOT_NAMED 1911-03-28 11:00:00 NR -21.6000 156.000 main 451 451 __________O___ -1 -21.6000 156.000 7 5 110
1911082S14149 1911 31 SP EA NOT_NAMED 1911-03-28 12:00:00 NR -21.6261 156.079 main 457 455 __________P___ -1 -21.6261 156.079 7 5 109
1911082S14149 1911 31 SP EA NOT_NAMED 1911-03-28 15:00:00 NR -21.7030 156.323 main 462 462 __________P___ -1 -21.7030 156.323 7 5 108
1911082S14149 1911 31 SP EA NOT_NAMED 1911-03-28 18:00:00 NR -21.7779 156.574 main 475 475 __________P___ -1 -21.7779 156.574 7 5 108
1911082S14149 1911 31 SP EA NOT_NAMED 1911-03-28 21:00:00 NR -21.8514 156.829 main 482 482 __________P___ -1 -21.8514 156.829 7 5 107
1911082S14149 1911 31 SP EA NOT_NAMED 1911-03-28 23:00:00 NR -21.9000 157.000 main 497 __________O___ -1 -21.9000 157.000 7 5 107

Digital Typhoon Data and Search

About IBTrACS Database

This database is a web-friendly format of International Best Track Archive for Climate Stewardship (IBTrACS), a global best track data archive curated by NOAA dating back to 1842.

Updated: 2021-10-21